Time;durP1;ratioP1;P1;durP2;ratioP2;P2;SDS_P1;SDS_P2;PMS_P1;PMS_P2;Temp;Humidity;BMP_temperature;BMP_pressure;BME280_temperature;BME280_humidity;BME280_pressure;Samples;Min_cycle;Max_cycle;Signal;HPM_P1;HPM_P2
2023/05/23 00:05:02;;;;;;;3.80;3.50;;;;;;;17.93;64.81;96571.88;10457901;28;20428;-28
2023/05/23 00:10:03;;;;;;;5.07;4.45;;;;;;;18.05;70.31;96582.00;10450115;28;20048;-28
2023/05/23 00:15:06;;;;;;;4.20;3.47;;;;;;;18.06;67.01;96582.00;10451874;28;20064;-29
2023/05/23 00:20:10;;;;;;;3.10;2.67;;;;;;;17.95;62.71;96582.84;10452897;28;20029;-28
2023/05/23 00:25:11;;;;;;;2.92;2.72;;;;;;;17.90;62.01;96576.97;10458224;28;20524;-28
2023/05/23 00:30:11;;;;;;;2.47;2.27;;;;;;;17.87;61.73;96582.88;10449514;28;20102;-28
2023/05/23 00:35:12;;;;;;;2.63;2.42;;;;;;;17.87;62.02;96572.75;10436091;28;20279;-28
2023/05/23 00:40:12;;;;;;;2.57;2.37;;;;;;;17.84;61.80;96589.63;10470025;28;20373;-28
2023/05/23 00:45:13;;;;;;;3.08;2.70;;;;;;;17.86;61.50;96580.31;10449500;28;20451;-28
2023/05/23 00:50:14;;;;;;;3.45;2.53;;;;;;;17.83;61.58;96580.34;10447625;28;20033;-28
2023/05/23 00:55:15;;;;;;;2.83;2.60;;;;;;;17.83;61.43;96576.09;10440406;28;20028;-27
2023/05/23 01:00:18;;;;;;;2.20;2.00;;;;;;;17.82;61.56;96582.00;10457990;28;20032;-28
2023/05/23 01:05:21;;;;;;;2.50;2.30;;;;;;;17.81;61.27;96582.00;10457978;28;20033;-29
2023/05/23 01:10:28;;;;;;;3.40;3.10;;;;;;;17.91;64.82;96591.31;10457949;28;20515;-28
2023/05/23 01:16:00;;;;;;;5.13;4.63;;;;;;;18.05;71.06;96592.13;10458438;28;20121;-28
2023/05/23 01:21:18;;;;;;;3.20;2.90;;;;;;;18.03;66.01;96583.69;10450706;28;20039;-28
2023/05/23 01:26:47;;;;;;;3.28;2.65;;;;;;;17.92;62.81;96576.09;10462456;28;20492;-29
2023/05/23 01:31:51;;;;;;;2.55;2.30;;;;;;;17.88;62.18;96588.75;10451840;28;20060;-28
2023/05/23 01:36:54;;;;;;;3.00;2.60;;;;;;;17.83;61.84;96578.63;10459629;28;20028;-28
2023/05/23 01:41:55;;;;;;;2.60;2.40;;;;;;;17.85;61.75;96583.69;10460346;28;20021;-28
2023/05/23 01:46:56;;;;;;;2.87;2.50;;;;;;;17.82;61.85;96583.72;10442584;28;20546;-28
2023/05/23 01:51:59;;;;;;;2.78;2.58;;;;;;;17.82;62.00;96583.72;10444488;28;20330;-29
2023/05/23 01:57:00;;;;;;;2.40;2.20;;;;;;;17.81;61.70;96584.53;10462700;28;20112;-28
2023/05/23 02:02:01;;;;;;;2.20;2.00;;;;;;;17.80;61.54;96581.16;10465756;28;20493;-28
2023/05/23 02:07:01;;;;;;;2.65;2.42;;;;;;;17.80;61.53;96585.38;10439853;28;20076;-28
2023/05/23 02:12:02;;;;;;;2.10;1.90;;;;;;;17.79;61.54;96592.16;10470101;28;20029;-28
2023/05/23 02:17:03;;;;;;;4.28;3.42;;;;;;;17.91;65.01;96589.59;10454661;28;20055;-28
2023/05/23 02:22:03;;;;;;;4.28;3.88;;;;;;;18.03;70.11;96584.56;10439898;28;20509;-28
2023/05/23 02:27:04;;;;;;;3.28;2.95;;;;;;;18.04;67.35;96580.31;10461697;28;20423;-28
2023/05/23 02:32:05;;;;;;;3.20;2.90;;;;;;;17.93;63.30;96574.41;10457460;28;20039;-27
2023/05/23 02:37:05;;;;;;;2.58;2.38;;;;;;;17.88;62.27;96573.56;10473316;28;20025;-28
2023/05/23 02:42:06;;;;;;;2.65;2.45;;;;;;;17.84;61.86;96587.91;10436745;28;20029;-28
2023/05/23 02:47:07;;;;;;;2.38;2.17;;;;;;;17.83;61.95;96590.47;10453365;28;20115;-28
2023/05/23 02:52:07;;;;;;;2.95;2.60;;;;;;;17.79;61.68;96594.69;10451437;28;20029;-28
2023/05/23 02:57:08;;;;;;;2.85;2.60;;;;;;;17.81;61.70;96592.13;10445610;28;20032;-28
2023/05/23 03:02:11;;;;;;;2.35;2.15;;;;;;;17.80;61.47;96595.50;10444716;28;20064;-28
2023/05/23 03:07:13;;;;;;;2.47;2.28;;;;;;;17.77;61.42;96591.31;10442200;28;20095;-28
2023/05/23 03:12:14;;;;;;;2.50;2.30;;;;;;;17.79;61.51;96596.34;10433959;28;20029;-29
2023/05/23 03:17:15;;;;;;;2.55;2.30;;;;;;;17.77;61.21;96583.72;10457685;28;20021;-28
2023/05/23 03:22:15;;;;;;;4.47;3.05;;;;;;;17.85;64.84;96587.09;10437573;28;20405;-27
2023/05/23 03:27:16;;;;;;;3.97;3.58;;;;;;;18.01;69.11;96585.41;10450792;28;20029;-28
2023/05/23 03:32:16;;;;;;;3.30;3.00;;;;;;;18.04;69.08;96586.25;10458775;28;20082;-28
2023/05/23 03:37:16;;;;;;;2.85;2.58;;;;;;;17.94;64.39;96579.50;10445178;28;20279;-28
2023/05/23 03:42:17;;;;;;;2.53;2.30;;;;;;;17.87;62.07;96592.13;10456438;28;20025;-28
2023/05/23 03:47:18;;;;;;;2.35;2.15;;;;;;;17.83;61.86;96596.34;10466502;28;20025;-28
2023/05/23 03:52:20;;;;;;;2.08;1.88;;;;;;;17.77;61.73;96587.91;10457942;28;20102;-28
2023/05/23 03:57:21;;;;;;;2.50;2.30;;;;;;;17.80;61.90;96587.91;10460610;28;20613;-28
2023/05/23 04:02:23;;;;;;;2.80;2.45;;;;;;;17.79;61.81;96591.28;10458137;28;20040;-28
2023/05/23 04:07:25;;;;;;;2.20;2.00;;;;;;;17.77;61.82;96591.31;10452386;28;20420;-28
2023/05/23 04:12:26;;;;;;;3.17;2.22;;;;;;;17.80;61.65;96600.56;10451747;28;20379;-28
2023/05/23 04:17:28;;;;;;;2.72;2.53;;;;;;;17.80;61.45;96610.69;10448059;28;20041;-29
2023/05/23 04:22:29;;;;;;;2.42;2.22;;;;;;;17.80;61.15;96615.75;10452224;28;20029;-28
2023/05/23 04:27:30;;;;;;;3.10;2.80;;;;;;;17.83;63.89;96621.69;10461159;28;20037;-28
2023/05/23 04:32:30;;;;;;;3.90;3.60;;;;;;;18.00;69.05;96614.09;10481829;28;20032;-28
2023/05/23 04:37:31;;;;;;;9.75;4.95;;;;;;;18.05;68.90;96605.66;10468030;28;20035;-28
2023/05/23 04:42:32;;;;;;;10.13;3.13;;;;;;;17.97;63.78;96619.16;10463305;28;20039;-29
2023/05/23 04:47:40;;;;;;;;;;;;;;;17.90;62.08;96632.69;10463761;28;20485;-28
2023/05/23 04:52:43;;;;;;;5.97;3.08;;;;;;;17.85;63.75;96634.34;10461702;28;19917;-28
2023/05/23 04:57:43;;;;;;;3.10;2.58;;;;;;;17.84;62.46;96637.72;10438532;28;20040;-28
2023/05/23 05:02:45;;;;;;;17.25;8.68;;;;;;;17.72;68.26;96651.22;10446819;28;20037;-28
2023/05/23 05:07:46;;;;;;;11.20;3.67;;;;;;;17.78;62.80;96647.84;10433101;28;20033;-28
2023/05/23 05:12:50;;;;;;;8.82;3.03;;;;;;;17.76;62.38;96629.28;10430324;28;20029;-28
2023/05/23 05:17:51;;;;;;;3.83;2.90;;;;;;;17.78;62.05;96627.59;10445960;28;20029;-28
2023/05/23 05:22:56;;;;;;;5.47;3.00;;;;;;;17.77;61.86;96628.44;10441037;28;20144;-29
2023/05/23 05:28:01;;;;;;;12.20;3.20;;;;;;;17.74;62.07;96629.28;10448174;28;20045;-28
2023/05/23 05:33:04;;;;;;;13.98;6.70;;;;;;;17.85;68.18;96631.81;10453088;28;20021;-28
2023/05/23 05:38:07;;;;;;;12.40;6.25;;;;;;;17.95;70.40;96626.78;10450322;28;20552;-28
2023/05/23 05:43:08;;;;;;;19.15;6.05;;;;;;;18.04;69.99;96641.13;10453962;28;20029;-28
2023/05/23 05:48:10;;;;;;;6.28;4.05;;;;;;;17.95;65.00;96641.09;10454651;28;20021;-28
2023/05/23 05:53:12;;;;;;;9.18;3.92;;;;;;;17.87;62.65;96645.31;10441775;28;20027;-28
2023/05/23 05:58:12;;;;;;;3.95;2.95;;;;;;;17.84;62.13;96647.88;10448579;28;20028;-29
2023/05/23 06:03:26;;;;;;;5.78;3.20;;;;;;;17.81;62.18;96647.84;10434962;28;20029;-28
2023/05/23 06:08:30;;;;;;;3.90;3.05;;;;;;;17.81;62.16;96663.03;10452595;28;20128;-28
2023/05/23 06:13:30;;;;;;;15.47;4.57;;;;;;;17.80;62.09;96668.94;10435952;28;20033;-28
2023/05/23 06:18:30;;;;;;;7.72;3.03;;;;;;;17.76;62.21;96670.63;10456268;28;20560;-29
2023/05/23 06:23:31;;;;;;;4.32;3.15;;;;;;;17.77;62.07;96668.94;10450302;28;20029;-28
2023/05/23 06:28:32;;;;;;;4.82;2.60;;;;;;;17.77;61.70;96671.47;10438694;28;20028;-29
2023/05/23 06:33:32;;;;;;;3.20;2.75;;;;;;;17.77;61.70;96676.53;10444569;28;20079;-28
2023/05/23 06:38:32;;;;;;;4.23;3.33;;;;;;;17.80;64.45;96677.41;10465579;28;20047;-28
2023/05/23 06:43:33;;;;;;;6.78;5.22;;;;;;;17.95;69.03;96668.97;10461526;28;20090;-28
2023/05/23 06:48:46;;;;;;;8.13;5.18;;;;;;;18.05;69.67;96678.25;10443469;28;20037;-28
2023/05/23 06:53:47;;;;;;;8.07;4.68;;;;;;;17.98;64.14;96679.13;10439978;28;20028;-29
2023/05/23 06:58:47;;;;;;;4.03;3.20;;;;;;;17.87;62.30;96689.22;10438321;28;20442;-28
2023/05/23 07:03:48;;;;;;;9.00;3.47;;;;;;;17.83;62.14;96681.63;10457886;28;20408;-28
2023/05/23 07:08:49;;;;;;;3.83;3.40;;;;;;;17.81;62.04;96690.88;10440053;28;20024;-28
2023/05/23 07:13:49;;;;;;;4.63;3.50;;;;;;;17.79;61.90;96688.38;10449116;28;20033;-29
2023/05/23 07:19:02;;;;;;;4.53;3.30;;;;;;;17.79;62.00;96682.44;10453922;28;20086;-27
2023/05/23 07:24:09;;;;;;;3.75;3.17;;;;;;;17.76;61.33;96695.13;10446987;28;20068;-29
2023/05/23 07:29:11;;;;;;;6.03;3.05;;;;;;;17.77;61.81;96691.75;10435405;28;20025;-28
2023/05/23 07:34:12;;;;;;;4.95;3.15;;;;;;;17.76;61.77;96693.41;10445609;28;20029;-28
2023/05/23 07:39:23;;;;;;;3.63;3.08;;;;;;;17.77;61.57;96691.75;10446717;28;20086;-28
2023/05/23 07:44:24;;;;;;;5.13;3.50;;;;;;;17.75;62.08;96693.44;10438768;28;20031;-28
2023/05/23 07:49:25;;;;;;;5.70;3.65;;;;;;;17.98;67.07;96701.94;10451323;28;20025;-28
2023/05/23 07:54:27;;;;;;;5.50;4.55;;;;;;;18.06;69.00;96692.63;10443978;28;20028;-28
2023/05/23 07:59:31;;;;;;;4.18;3.40;;;;;;;18.00;64.20;96682.50;10453229;28;20028;-27
2023/05/23 08:04:32;;;;;;;3.40;3.10;;;;;;;17.90;62.41;96693.47;10433814;28;20033;-28
2023/05/23 08:09:35;;;;;;;3.28;2.97;;;;;;;17.84;61.59;96688.38;10437425;28;20036;-28
2023/05/23 08:14:35;;;;;;;2.90;2.63;;;;;;;17.81;62.02;96683.28;10444887;28;20020;-28
2023/05/23 08:19:48;;;;;;;2.90;2.60;;;;;;;17.81;62.02;96701.00;10447908;28;20127;-29
2023/05/23 08:24:48;;;;;;;3.25;2.78;;;;;;;17.79;61.79;96701.03;10438057;28;20036;-28
2023/05/23 08:29:49;;;;;;;3.08;2.80;;;;;;;17.79;61.79;96700.19;10455684;28;20037;-28
2023/05/23 08:34:50;;;;;;;3.17;2.85;;;;;;;17.79;61.92;96702.72;10447759;28;20032;-28
2023/05/23 08:39:51;;;;;;;3.83;2.40;;;;;;;17.78;61.83;96706.09;10449554;28;20417;-28
2023/05/23 08:45:18;;;;;;;4.32;3.22;;;;;;;17.79;61.77;96710.31;10447500;28;20357;-28
2023/05/23 08:50:19;;;;;;;3.03;2.78;;;;;;;17.79;62.12;96712.84;10441751;28;20033;-27
2023/05/23 08:55:25;;;;;;;3.45;3.15;;;;;;;17.97;64.35;96710.34;10434636;28;20017;-28
2023/05/23 09:00:26;;;;;;;5.03;4.00;;;;;;;18.08;68.22;96716.28;10452887;28;20514;-28
2023/05/23 09:05:28;;;;;;;3.60;3.10;;;;;;;18.02;64.69;96716.28;10442071;28;20036;-29
2023/05/23 09:10:29;;;;;;;3.22;2.40;;;;;;;17.92;62.86;96717.09;10441301;28;20479;-28
2023/05/23 09:15:30;;;;;;;3.22;2.83;;;;;;;17.86;61.91;96725.53;10460299;28;20070;-28
2023/05/23 09:20:32;;;;;;;3.10;2.80;;;;;;;17.82;62.03;96721.28;10452951;28;20032;-28
2023/05/23 09:25:45;;;;;;;3.53;3.00;;;;;;;17.79;62.11;96720.44;10439300;28;20033;-28
2023/05/23 09:30:46;;;;;;;2.60;2.40;;;;;;;17.81;62.13;96723.81;10452747;28;20144;-28
2023/05/23 09:35:46;;;;;;;5.47;3.57;;;;;;;17.80;62.08;96728.03;10472905;28;20029;-28
2023/05/23 09:40:49;;;;;;;4.33;3.07;;;;;;;17.81;62.34;96723.81;10455988;28;20029;-28
2023/05/23 09:45:52;;;;;;;3.00;2.70;;;;;;;17.80;62.22;96727.19;10453554;28;20036;-28
2023/05/23 09:50:52;;;;;;;3.58;3.15;;;;;;;17.81;62.69;96723.81;10452659;28;20059;-28
2023/05/23 09:55:57;;;;;;;3.92;3.22;;;;;;;17.79;62.28;96728.03;10444276;28;20035;-29
2023/05/23 10:01:02;;;;;;;3.90;3.35;;;;;;;17.98;64.68;96728.09;10464148;28;20302;-28
2023/05/23 10:06:43;;;;;;;5.78;4.60;;;;;;;18.10;67.65;96727.25;10454415;28;20036;-28
2023/05/23 10:11:59;;;;;;;3.53;3.00;;;;;;;18.02;61.85;96723.88;10403049;28;20052;-28
2023/05/23 10:17:18;;;;;;;2.88;2.67;;;;;;;17.99;61.57;96721.34;10460086;28;20515;-28
2023/05/23 10:22:20;;;;;;;3.35;3.03;;;;;;;18.01;61.56;96727.25;10468838;28;20418;-28
2023/05/23 10:27:20;;;;;;;2.75;2.55;;;;;;;18.01;61.69;96717.13;10453187;28;20061;-29
2023/05/23 10:32:21;;;;;;;3.57;3.27;;;;;;;18.01;61.57;96717.13;10470518;28;20115;-27
2023/05/23 10:37:58;;;;;;;3.10;2.80;;;;;;;18.00;61.54;96716.25;10472005;28;20040;-28
2023/05/23 10:43:17;;;;;;;4.20;3.80;;;;;;;18.00;61.51;96710.38;10468839;28;20041;-28
2023/05/23 10:48:34;;;;;;;3.45;2.97;;;;;;;18.01;61.71;96709.50;10468784;28;20507;-28
2023/05/23 10:53:42;;;;;;;3.22;2.92;;;;;;;18.02;61.63;96701.06;10460042;28;20087;-28
2023/05/23 10:58:42;;;;;;;3.33;3.03;;;;;;;18.00;61.44;96696.00;10452108;28;20037;-29
2023/05/23 11:03:46;;;;;;;6.78;5.28;;;;;;;18.04;64.92;96697.69;10452895;28;20053;-28
2023/05/23 11:08:46;;;;;;;4.30;3.90;;;;;;;18.16;66.11;96689.28;10452016;28;20111;-28
2023/05/23 11:13:59;;;;;;;4.47;4.07;;;;;;;18.18;66.72;96695.19;10453416;28;20086;-28
2023/05/23 11:19:17;;;;;;;3.03;2.72;;;;;;;18.09;61.64;96692.63;10451844;28;20121;-28
2023/05/23 11:24:18;;;;;;;4.10;3.63;;;;;;;18.03;61.61;96690.09;10463036;28;20405;-28
2023/05/23 11:29:19;;;;;;;3.33;3.03;;;;;;;18.02;61.59;96698.53;10450926;28;20029;-28
2023/05/23 11:34:20;;;;;;;3.35;3.05;;;;;;;17.98;61.58;96696.84;10475592;28;20040;-28
2023/05/23 11:39:21;;;;;;;3.60;3.30;;;;;;;18.00;61.40;96700.22;10458126;28;20115;-28
2023/05/23 11:44:22;;;;;;;3.17;2.88;;;;;;;17.99;61.58;96703.59;10453611;28;20045;-28
2023/05/23 11:49:22;;;;;;;3.45;3.15;;;;;;;17.99;61.80;96699.38;10458791;28;20040;-28
2023/05/23 11:54:24;;;;;;;3.97;2.90;;;;;;;17.96;61.56;96698.53;10457911;28;20512;-29
2023/05/23 11:59:27;;;;;;;3.58;3.28;;;;;;;17.96;61.49;96699.38;10442859;28;20413;-28
2023/05/23 12:04:27;;;;;;;4.55;3.25;;;;;;;17.97;61.52;96698.53;10445809;28;20044;-28
2023/05/23 12:09:28;;;;;;;6.47;5.40;;;;;;;18.01;64.72;96695.16;10447116;28;20037;-28
2023/05/23 12:14:28;;;;;;;6.80;4.27;;;;;;;18.16;66.07;96690.09;10446351;28;20033;-28
2023/05/23 12:19:29;;;;;;;3.92;3.53;;;;;;;18.22;64.82;96684.19;10448655;28;20041;-28
2023/05/23 12:24:30;;;;;;;5.05;3.22;;;;;;;18.12;61.96;96692.63;10450436;28;20532;-28
2023/05/23 12:29:36;;;;;;;3.20;2.90;;;;;;;18.07;61.56;96681.66;10445287;28;20032;-28
2023/05/23 12:34:41;;;;;;;5.85;4.55;;;;;;;18.04;61.82;96677.44;10449150;28;20292;-28
2023/05/23 12:39:43;;;;;;;4.65;3.30;;;;;;;18.01;62.08;96672.34;10456868;28;20049;-28
2023/05/23 12:44:44;;;;;;;4.47;3.13;;;;;;;18.00;62.38;96685.84;10442627;28;20772;-28
2023/05/23 12:49:45;;;;;;;6.63;3.35;;;;;;;18.00;62.01;96685.03;10479662;28;20074;-28
2023/05/23 12:54:46;;;;;;;3.95;3.38;;;;;;;17.97;62.05;96696.00;10469032;28;20078;-28
2023/05/23 12:59:46;;;;;;;4.63;3.40;;;;;;;17.97;61.82;96683.34;10454562;28;20036;-29
2023/05/23 13:04:46;;;;;;;3.93;3.53;;;;;;;17.97;61.74;96679.94;10467308;28;20043;-29
2023/05/23 13:09:47;;;;;;;3.30;3.00;;;;;;;17.98;61.78;96681.66;10466993;28;20028;-28
2023/05/23 13:14:48;;;;;;;6.03;5.03;;;;;;;17.98;62.25;96674.06;10455138;28;20032;-28
2023/05/23 13:19:48;;;;;;;4.85;4.20;;;;;;;18.16;64.84;96671.53;10463972;28;20028;-28
2023/05/23 13:24:49;;;;;;;4.60;4.20;;;;;;;18.24;65.18;96669.84;10463954;28;20569;-29
2023/05/23 13:29:49;;;;;;;7.18;4.35;;;;;;;18.13;62.46;96672.38;10471134;28;20055;-28
2023/05/23 13:34:49;;;;;;;6.33;4.00;;;;;;;18.06;61.96;96669.81;10461606;28;20036;-27
2023/05/23 13:39:50;;;;;;;3.95;3.28;;;;;;;18.02;61.98;96668.13;10459495;28;20067;-28
2023/05/23 13:44:50;;;;;;;5.10;4.13;;;;;;;18.00;61.83;96670.66;10461013;28;20040;-27
2023/05/23 13:49:50;;;;;;;4.23;3.83;;;;;;;17.99;62.08;96666.44;10474328;28;20077;-28
2023/05/23 13:54:51;;;;;;;4.30;3.90;;;;;;;17.97;62.23;96657.16;10457264;28;20033;-28
2023/05/23 13:59:51;;;;;;;4.10;3.67;;;;;;;17.94;61.85;96649.56;10470392;28;20040;-28
2023/05/23 14:04:52;;;;;;;3.90;3.50;;;;;;;17.98;61.96;96656.34;10472970;28;20942;-28
2023/05/23 14:09:52;;;;;;;4.32;3.78;;;;;;;17.98;62.04;96651.25;10461288;28;21258;-28
2023/05/23 14:14:52;;;;;;;4.53;4.13;;;;;;;17.97;62.16;96649.53;10464564;28;20232;-28
2023/05/23 14:19:53;;;;;;;6.80;3.90;;;;;;;17.93;62.21;96640.28;10464030;28;20035;-28
2023/05/23 14:24:53;;;;;;;6.67;5.40;;;;;;;18.16;65.96;96656.34;10466571;28;20483;-28
2023/05/23 14:29:56;;;;;;;7.33;5.70;;;;;;;18.21;66.02;96649.56;10459812;28;20080;-28
2023/05/23 14:34:57;;;;;;;9.18;5.70;;;;;;;18.14;63.08;96652.94;10452747;28;20532;-30
2023/05/23 14:39:57;;;;;;;3.63;3.33;;;;;;;18.09;62.03;96657.16;10454089;28;20041;-28
2023/05/23 14:44:57;;;;;;;3.53;3.23;;;;;;;18.03;61.89;96649.56;10460318;28;20071;-28
2023/05/23 14:49:58;;;;;;;4.20;3.50;;;;;;;17.99;62.43;96641.13;10453325;28;20033;-28
2023/05/23 14:54:59;;;;;;;4.32;3.58;;;;;;;17.99;62.09;96653.78;10453402;28;20102;-27
2023/05/23 15:00:03;;;;;;;3.97;3.58;;;;;;;17.99;61.93;96647.88;10451963;28;20171;-28
2023/05/23 15:05:04;;;;;;;4.15;3.75;;;;;;;17.97;62.36;96649.53;10460633;28;20400;-27
2023/05/23 15:10:06;;;;;;;4.47;4.07;;;;;;;17.95;61.88;96652.09;10451702;28;20553;-28
2023/05/23 15:15:07;;;;;;;3.97;3.67;;;;;;;17.97;62.25;96644.47;10452119;28;20025;-28
2023/05/23 15:20:08;;;;;;;3.75;3.42;;;;;;;17.97;61.77;96647.00;10459302;28;20033;-28
2023/05/23 15:25:09;;;;;;;4.13;3.72;;;;;;;17.98;62.40;96646.19;10454377;28;20086;-27
2023/05/23 15:30:10;;;;;;;4.70;4.22;;;;;;;18.15;64.63;96640.28;10452462;28;20029;-28
2023/05/23 15:35:10;;;;;;;5.60;4.65;;;;;;;18.22;65.33;96641.09;10447989;28;20032;-28
2023/05/23 15:40:11;;;;;;;4.63;4.17;;;;;;;18.19;63.67;96651.25;10452034;28;20118;-28
2023/05/23 15:45:12;;;;;;;4.80;3.63;;;;;;;18.05;62.06;96652.94;10445940;28;20727;-27
2023/05/23 15:50:12;;;;;;;3.90;3.60;;;;;;;18.04;62.02;96668.97;10447426;28;20040;-27
2023/05/23 15:55:12;;;;;;;7.50;3.80;;;;;;;17.99;62.13;96678.28;10463628;28;20040;-28
2023/05/23 16:00:13;;;;;;;4.63;3.53;;;;;;;17.98;63.84;96669.81;10451869;28;20033;-28
2023/05/23 16:05:13;;;;;;;5.10;3.50;;;;;;;17.97;62.83;96662.22;10449629;28;20040;-28
2023/05/23 16:10:14;;;;;;;3.50;3.20;;;;;;;17.99;62.09;96663.09;10452064;28;20033;-27
2023/05/23 16:15:14;;;;;;;4.00;3.42;;;;;;;17.98;61.83;96666.47;10446816;28;20029;-28
2023/05/23 16:20:14;;;;;;;3.67;3.33;;;;;;;17.98;61.78;96666.47;10454516;28;20177;-28
2023/05/23 16:25:15;;;;;;;4.47;3.43;;;;;;;17.97;61.74;96662.22;10465455;28;20287;-28
2023/05/23 16:30:15;;;;;;;4.70;3.07;;;;;;;17.98;61.78;96666.47;10458336;28;20166;-27
2023/05/23 16:35:16;;;;;;;5.67;4.60;;;;;;;18.15;65.06;96665.63;10459131;28;20045;-31
2023/05/23 16:40:16;;;;;;;5.23;4.37;;;;;;;18.26;65.84;96658.00;10461614;28;20273;-29
2023/05/23 16:45:16;;;;;;;7.97;4.37;;;;;;;18.20;64.67;96658.00;10448833;28;20068;-29
2023/05/23 16:50:17;;;;;;;4.37;3.50;;;;;;;18.11;62.40;96658.00;10428371;28;20381;-29
2023/05/23 16:55:17;;;;;;;7.70;4.47;;;;;;;18.07;62.20;96663.94;10449704;28;20775;-29
2023/05/23 17:00:19;;;;;;;9.73;5.70;;;;;;;18.13;69.65;96663.91;10446937;28;20036;-30
2023/05/23 17:05:20;;;;;;;5.97;3.38;;;;;;;18.03;62.67;96665.63;10453507;28;20078;-29
2023/05/23 17:10:21;;;;;;;8.25;3.88;;;;;;;18.03;62.35;96659.69;10441901;28;20049;-28
2023/05/23 17:15:21;;;;;;;5.18;3.75;;;;;;;18.00;62.24;96664.78;10450549;28;20032;-29
2023/05/23 17:20:25;;;;;;;7.57;3.67;;;;;;;18.01;63.16;96671.53;10463797;28;20080;-28
2023/05/23 17:25:26;;;;;;;6.03;3.80;;;;;;;18.00;62.14;96667.31;10461037;28;20087;-29
2023/05/23 17:30:27;;;;;;;8.10;3.55;;;;;;;17.98;61.88;96666.47;10458851;28;20047;-29
2023/05/23 17:35:27;;;;;;;4.72;3.78;;;;;;;17.98;62.00;96666.47;10457448;28;20125;-29
2023/05/23 17:40:28;;;;;;;7.35;5.18;;;;;;;18.16;65.09;96669.00;10455679;28;20056;-28
2023/05/23 17:45:28;;;;;;;8.45;4.95;;;;;;;18.26;66.35;96666.44;10468695;28;20115;-29
2023/05/23 17:50:29;;;;;;;5.37;4.20;;;;;;;18.21;63.95;96669.81;10459241;28;20060;-29
2023/05/23 17:55:29;;;;;;;4.03;3.17;;;;;;;18.10;62.21;96671.53;10461225;28;20296;-29
2023/05/23 18:00:30;;;;;;;4.83;3.80;;;;;;;18.05;62.22;96674.06;10455740;28;20036;-28
2023/05/23 18:05:30;;;;;;;6.43;3.67;;;;;;;18.01;62.25;96676.59;10456497;28;20043;-28
2023/05/23 18:10:31;;;;;;;4.07;3.22;;;;;;;18.01;62.08;96681.66;10455874;28;20484;-28
2023/05/23 18:15:32;;;;;;;10.38;3.90;;;;;;;17.99;62.23;96689.25;10462353;28;20544;-28
2023/05/23 18:20:32;;;;;;;5.55;3.20;;;;;;;17.99;62.76;96698.53;10444364;28;20040;-27
2023/05/23 18:25:32;;;;;;;5.03;3.30;;;;;;;17.99;62.04;96698.53;10461727;28;20048;-28
2023/05/23 18:30:33;;;;;;;3.33;2.70;;;;;;;17.97;62.00;96705.28;10468783;28;20106;-29
2023/05/23 18:35:33;;;;;;;4.50;2.90;;;;;;;17.95;61.81;96701.91;10460576;28;20291;-29
2023/05/23 18:40:33;;;;;;;4.43;3.37;;;;;;;17.97;61.86;96705.28;10453259;28;20101;-28
2023/05/23 18:45:35;;;;;;;4.77;4.27;;;;;;;18.16;64.21;96701.94;10456308;28;20040;-28
2023/05/23 18:50:37;;;;;;;6.20;4.88;;;;;;;18.29;65.26;96709.59;10455339;28;20086;-29
2023/05/23 18:55:37;;;;;;;5.30;3.75;;;;;;;18.26;63.98;96714.59;10452139;28;20048;-27
2023/05/23 19:00:38;;;;;;;4.03;2.80;;;;;;;18.12;62.21;96716.28;10453067;28;20112;-29
2023/05/23 19:05:38;;;;;;;3.83;3.43;;;;;;;18.06;61.97;96715.41;10457695;28;20037;-27
2023/05/23 19:10:38;;;;;;;4.93;3.90;;;;;;;18.01;61.93;96728.06;10451831;28;20040;-28
2023/05/23 19:15:39;;;;;;;3.30;3.00;;;;;;;17.89;61.74;96717.06;10443788;28;20378;-28
2023/05/23 19:20:39;;;;;;;6.22;3.88;;;;;;;17.99;61.90;96739.91;10440686;28;20036;-29
2023/05/23 19:25:41;;;;;;;4.93;3.08;;;;;;;17.98;61.85;96748.34;10443812;28;20380;-29
2023/05/23 19:30:42;;;;;;;3.33;3.03;;;;;;;17.98;61.88;96752.59;10447110;28;20040;-30
2023/05/23 19:35:43;;;;;;;3.22;2.88;;;;;;;17.97;61.60;96755.94;10441156;28;20381;-29
2023/05/23 19:40:45;;;;;;;4.23;3.93;;;;;;;17.95;61.34;96755.09;10442228;28;20029;-29
2023/05/23 19:45:45;;;;;;;3.40;3.10;;;;;;;17.97;61.64;96761.00;10441810;28;20020;-29
2023/05/23 19:50:46;;;;;;;6.03;3.85;;;;;;;18.13;64.25;96763.59;10444549;28;20082;-28
2023/05/23 19:55:46;;;;;;;4.40;3.95;;;;;;;18.24;64.87;96771.22;10443653;28;20152;-27
2023/05/23 20:00:47;;;;;;;4.00;3.60;;;;;;;18.25;64.01;96773.72;10456757;28;20025;-28
2023/05/23 20:05:47;;;;;;;3.10;2.80;;;;;;;18.13;62.01;96777.94;10453183;28;20073;-28
2023/05/23 20:10:47;;;;;;;3.95;3.05;;;;;;;18.09;62.13;96789.75;10449858;28;20273;-28
2023/05/23 20:15:48;;;;;;;2.97;2.72;;;;;;;18.06;61.96;96796.47;10457033;28;20049;-28
2023/05/23 20:20:48;;;;;;;4.32;3.03;;;;;;;18.05;61.78;96799.88;10452724;28;20040;-28
2023/05/23 20:25:49;;;;;;;3.40;3.10;;;;;;;18.03;61.81;96811.69;10449719;28;20029;-28
2023/05/23 20:30:50;;;;;;;3.40;3.10;;;;;;;18.01;61.80;96809.13;10455902;28;20029;-28
2023/05/23 20:35:51;;;;;;;3.88;3.28;;;;;;;17.99;61.74;96805.75;10460665;28;20029;-28
2023/05/23 20:40:51;;;;;;;3.38;2.83;;;;;;;17.98;61.81;96808.31;10449790;28;20507;-28
2023/05/23 20:45:51;;;;;;;3.28;2.97;;;;;;;17.97;61.48;96816.72;10452743;28;20909;-28
2023/05/23 20:50:53;;;;;;;3.20;2.90;;;;;;;17.97;61.79;96819.25;10452456;28;20036;-29
2023/05/23 20:55:53;;;;;;;4.40;3.45;;;;;;;18.13;64.35;96818.47;10452380;28;20021;-28
2023/05/23 21:00:54;;;;;;;4.00;3.70;;;;;;;18.26;64.85;96827.81;10457755;28;20025;-28
2023/05/23 21:05:55;;;;;;;3.15;2.83;;;;;;;18.25;64.59;96828.66;10459668;28;20056;-29
2023/05/23 21:10:55;;;;;;;3.47;3.17;;;;;;;18.14;61.72;96827.75;10456395;28;20127;-28
2023/05/23 21:15:55;;;;;;;3.13;2.83;;;;;;;18.10;61.89;96831.13;10466215;28;20083;-27
2023/05/23 21:20:58;;;;;;;5.30;3.20;;;;;;;18.07;61.59;96829.44;10465219;28;20029;-28
2023/05/23 21:25:58;;;;;;;3.60;3.08;;;;;;;18.05;61.61;96833.66;10454108;28;20337;-27
2023/05/23 21:30:59;;;;;;;2.87;2.67;;;;;;;17.98;61.84;96828.59;10476937;28;20506;-27
2023/05/23 21:35:59;;;;;;;3.47;2.65;;;;;;;18.00;61.51;96835.31;10457517;28;20024;-27
2023/05/23 21:41:00;;;;;;;3.05;2.60;;;;;;;18.01;61.43;96843.78;10463931;28;20039;-28
2023/05/23 21:46:00;;;;;;;3.30;3.00;;;;;;;18.01;61.54;96846.31;10437969;28;20397;-29
2023/05/23 21:51:00;;;;;;;3.03;2.70;;;;;;;17.99;61.56;96842.94;10459652;28;20079;-27
2023/05/23 21:56:01;;;;;;;3.37;2.77;;;;;;;17.98;61.41;96843.78;10455206;28;20397;-28
2023/05/23 22:01:01;;;;;;;3.60;3.30;;;;;;;18.13;63.81;96839.59;10455587;28;20512;-27
2023/05/23 22:06:45;;;;;;;3.73;3.43;;;;;;;18.27;66.09;96848.09;10440757;28;20082;-27
2023/05/23 22:11:45;;;;;;;3.22;2.92;;;;;;;18.24;63.36;96837.09;10466257;28;20040;-28
2023/05/23 22:16:48;;;;;;;3.20;2.90;;;;;;;18.08;62.13;96832.84;10454629;28;20040;-27
2023/05/23 22:21:49;;;;;;;3.22;2.80;;;;;;;18.04;61.50;96848.84;10453626;28;20415;-28
2023/05/23 22:26:49;;;;;;;2.80;2.50;;;;;;;18.00;61.54;96842.91;10471139;28;20036;-28
2023/05/23 22:31:49;;;;;;;2.80;2.60;;;;;;;17.99;61.60;96848.00;10453602;28;20043;-29
2023/05/23 22:36:50;;;;;;;3.47;2.23;;;;;;;17.98;61.68;96849.69;10469164;28;20021;-28
2023/05/23 22:41:51;;;;;;;2.60;2.40;;;;;;;17.91;61.71;96850.47;10461810;28;20029;-27
2023/05/23 22:46:51;;;;;;;2.70;2.20;;;;;;;17.92;61.54;96859.78;10464970;28;20048;-27
2023/05/23 22:51:51;;;;;;;2.70;2.50;;;;;;;17.94;60.99;96847.13;10435164;28;20279;-27
2023/05/23 22:56:52;;;;;;;3.07;2.77;;;;;;;17.94;61.17;96842.91;10465865;28;20397;-27
2023/05/23 23:01:52;;;;;;;2.57;2.37;;;;;;;17.92;61.17;96843.75;10459544;28;20032;-28
2023/05/23 23:06:53;;;;;;;2.70;2.50;;;;;;;18.12;63.51;96844.66;10457214;28;20291;-28
2023/05/23 23:11:53;;;;;;;3.88;3.53;;;;;;;18.23;65.42;96837.91;10464967;28;20044;-28
2023/05/23 23:16:56;;;;;;;3.20;2.90;;;;;;;18.24;63.10;96837.09;10461017;28;20131;-27
2023/05/23 23:21:57;;;;;;;2.72;2.53;;;;;;;18.13;62.53;96828.59;10452343;28;20079;-28
2023/05/23 23:26:57;;;;;;;2.73;2.53;;;;;;;18.03;61.63;96816.75;10463642;28;20087;-28